createdAt,value
2018-03-07T00:00:23.806Z,942.76
2018-03-07T00:01:23.818Z,942.77
2018-03-07T00:02:23.869Z,942.78
2018-03-07T00:03:23.841Z,942.78
2018-03-07T00:04:23.855Z,942.79
2018-03-07T00:05:23.863Z,942.79
2018-03-07T00:06:23.902Z,942.78
2018-03-07T00:07:23.906Z,942.81
2018-03-07T00:08:23.908Z,942.78
2018-03-07T00:09:23.927Z,942.78
2018-03-07T00:10:23.930Z,942.82
2018-03-07T00:11:23.938Z,942.82
2018-03-07T00:12:23.946Z,942.80
2018-03-07T00:13:23.959Z,942.86
2018-03-07T00:14:23.994Z,942.85
2018-03-07T00:15:23.997Z,942.86
2018-03-07T00:16:24.041Z,942.89
2018-03-07T00:17:24.014Z,942.91
2018-03-07T00:18:24.024Z,942.90
2018-03-07T00:19:24.036Z,942.88
2018-03-07T00:20:24.048Z,942.91
2018-03-07T00:21:24.110Z,942.92
2018-03-07T00:22:24.074Z,942.93
2018-03-07T00:23:24.084Z,942.90
2018-03-07T00:24:24.096Z,942.94
2018-03-07T00:25:24.118Z,942.94
2018-03-07T00:26:24.160Z,942.92
2018-03-07T00:27:24.135Z,942.97
2018-03-07T00:28:24.148Z,942.93
2018-03-07T00:29:24.163Z,942.92
2018-03-07T00:30:24.176Z,942.94
2018-03-07T00:31:24.201Z,942.94
2018-03-07T00:32:24.196Z,942.97
2018-03-07T00:33:24.207Z,942.96
2018-03-07T00:34:24.221Z,942.94
2018-03-07T00:35:24.236Z,942.95
2018-03-07T00:36:24.277Z,942.96
2018-03-07T00:37:24.262Z,942.96
2018-03-07T00:38:24.276Z,942.97
2018-03-07T00:39:24.281Z,942.96
2018-03-07T00:40:24.299Z,942.95
2018-03-07T00:41:24.386Z,942.99
2018-03-07T00:42:24.324Z,943.01
2018-03-07T00:43:24.336Z,943.01
2018-03-07T00:44:24.356Z,943.05
2018-03-07T00:45:24.360Z,943.04
2018-03-07T00:46:24.419Z,943.05
2018-03-07T00:47:24.389Z,943.01
2018-03-07T00:48:24.397Z,943.05
2018-03-07T00:49:24.406Z,943.02
2018-03-07T00:50:24.422Z,943.06
2018-03-07T00:51:24.458Z,943.05
2018-03-07T00:52:24.446Z,943.03
2018-03-07T00:53:24.568Z,943.05
2018-03-07T00:54:24.475Z,943.05
2018-03-07T00:55:24.515Z,943.06
2018-03-07T00:56:24.500Z,943.00
2018-03-07T00:57:24.508Z,943.02
2018-03-07T00:58:24.518Z,943.00
2018-03-07T00:59:24.536Z,942.96
2018-03-07T01:00:24.556Z,942.98
2018-03-07T01:01:24.583Z,942.95
2018-03-07T01:02:24.573Z,942.96
2018-03-07T01:03:24.587Z,942.88
2018-03-07T01:04:24.605Z,942.85
2018-03-07T01:05:24.648Z,942.89
2018-03-07T01:06:24.654Z,942.88
2018-03-07T01:07:24.639Z,942.85
2018-03-07T01:08:24.652Z,942.85
2018-03-07T01:09:24.666Z,942.87
2018-03-07T01:10:24.671Z,942.87
2018-03-07T01:11:24.705Z,942.87
2018-03-07T01:12:24.702Z,942.84
2018-03-07T01:13:24.709Z,942.86
2018-03-07T01:14:24.729Z,942.86
2018-03-07T01:15:24.758Z,942.90
2018-03-07T01:16:24.750Z,942.84
2018-03-07T01:17:24.764Z,942.86
2018-03-07T01:18:24.804Z,942.86
2018-03-07T01:19:24.791Z,942.84
2018-03-07T01:20:24.835Z,942.82
2018-03-07T01:21:24.818Z,942.86
2018-03-07T01:22:24.831Z,942.79
2018-03-07T01:23:24.838Z,942.81
2018-03-07T01:24:24.847Z,942.83
2018-03-07T01:25:24.902Z,942.80
2018-03-07T01:26:24.883Z,942.81
2018-03-07T01:27:24.893Z,942.83
2018-03-07T01:28:24.903Z,942.79
2018-03-07T01:29:24.917Z,942.79
2018-03-07T01:30:24.933Z,942.80
2018-03-07T01:31:24.984Z,942.81
2018-03-07T01:32:24.958Z,942.82
2018-03-07T01:33:24.968Z,942.81
2018-03-07T01:34:24.979Z,942.80
2018-03-07T01:35:24.990Z,942.76
2018-03-07T01:36:25.055Z,942.76
2018-03-07T01:37:25.018Z,942.73
2018-03-07T01:38:25.055Z,942.73
2018-03-07T01:39:25.042Z,942.71
2018-03-07T01:40:25.056Z,942.69
2018-03-07T01:41:25.072Z,942.68
2018-03-07T01:42:25.079Z,942.67
2018-03-07T01:43:25.126Z,942.63
2018-03-07T01:44:25.123Z,942.60
2018-03-07T01:45:25.138Z,942.60
2018-03-07T01:46:25.130Z,942.58
2018-03-07T01:47:25.141Z,942.58
2018-03-07T01:48:25.187Z,942.58
2018-03-07T01:49:25.166Z,942.59
2018-03-07T01:50:25.183Z,942.60
2018-03-07T01:51:25.198Z,942.58
2018-03-07T01:52:25.214Z,942.57
2018-03-07T01:53:25.254Z,942.53
2018-03-07T01:54:25.229Z,942.54
2018-03-07T01:55:25.266Z,942.57
2018-03-07T01:56:25.262Z,942.58
2018-03-07T01:57:25.264Z,942.61
2018-03-07T01:58:25.287Z,942.63
2018-03-07T01:59:25.359Z,942.61
2018-03-07T02:00:25.309Z,942.64
2018-03-07T02:01:25.320Z,942.64
2018-03-07T02:02:25.331Z,942.64
2018-03-07T02:03:25.340Z,942.66
2018-03-07T02:04:25.392Z,942.62
2018-03-07T02:05:25.385Z,942.62
2018-03-07T02:06:25.386Z,942.62
2018-03-07T02:07:25.392Z,942.59
2018-03-07T02:08:25.406Z,942.57
2018-03-07T02:09:25.416Z,942.58
2018-03-07T02:10:25.453Z,942.57
2018-03-07T02:11:25.444Z,942.56
2018-03-07T02:12:25.473Z,942.54
2018-03-07T02:13:25.471Z,942.53
2018-03-07T02:14:25.482Z,942.55
2018-03-07T02:15:25.512Z,942.53
2018-03-07T02:16:25.507Z,942.52
2018-03-07T02:17:25.516Z,942.47
2018-03-07T02:18:25.560Z,942.49
2018-03-07T02:19:25.571Z,942.49
2018-03-07T02:20:25.551Z,942.52
2018-03-07T02:21:25.587Z,942.54
2018-03-07T02:22:25.586Z,942.52
2018-03-07T02:23:25.612Z,942.54
2018-03-07T02:24:25.625Z,942.52
2018-03-07T02:25:25.619Z,942.55
2018-03-07T02:26:25.630Z,942.53
2018-03-07T02:27:25.662Z,942.49
2018-03-07T02:28:25.651Z,942.51
2018-03-07T02:29:25.689Z,942.54
2018-03-07T02:30:25.680Z,942.55
2018-03-07T02:31:25.697Z,942.55
2018-03-07T02:32:25.707Z,942.53
2018-03-07T02:33:25.723Z,942.50
2018-03-07T02:34:25.759Z,942.49
2018-03-07T02:35:25.745Z,942.55
2018-03-07T02:36:25.759Z,942.50
2018-03-07T02:37:25.763Z,942.52
2018-03-07T02:38:25.780Z,942.51
2018-03-07T02:39:25.824Z,942.49
2018-03-07T02:40:25.831Z,942.55
2018-03-07T02:41:25.879Z,942.51
2018-03-07T02:42:25.826Z,942.59
2018-03-07T02:43:25.841Z,942.56
2018-03-07T02:44:25.859Z,942.56
2018-03-07T02:45:25.906Z,942.57
2018-03-07T02:46:25.881Z,942.56
2018-03-07T02:47:25.895Z,942.57
2018-03-07T02:48:25.905Z,942.53
2018-03-07T02:49:25.915Z,942.55
2018-03-07T02:50:25.956Z,942.56
2018-03-07T02:51:25.948Z,942.51
2018-03-07T02:52:25.957Z,942.54
2018-03-07T02:53:25.969Z,942.52
2018-03-07T02:54:26.017Z,942.54
2018-03-07T02:55:25.993Z,942.51
2018-03-07T02:56:26.004Z,942.48
2018-03-07T02:57:26.012Z,942.50
2018-03-07T02:58:26.026Z,942.52
2018-03-07T02:59:26.082Z,942.49
2018-03-07T03:00:26.057Z,942.52
2018-03-07T03:01:26.062Z,942.50
2018-03-07T03:02:26.076Z,942.52
2018-03-07T03:03:26.090Z,942.51
2018-03-07T03:04:26.151Z,942.50
2018-03-07T03:05:26.119Z,942.48
2018-03-07T03:06:26.130Z,942.54
2018-03-07T03:07:26.139Z,942.49
2018-03-07T03:08:26.151Z,942.45
2018-03-07T03:09:26.210Z,942.49
2018-03-07T03:10:26.177Z,942.48
2018-03-07T03:11:26.185Z,942.45
2018-03-07T03:12:26.206Z,942.46
2018-03-07T03:13:26.213Z,942.48
2018-03-07T03:14:26.255Z,942.52
2018-03-07T03:15:26.245Z,942.50
2018-03-07T03:16:26.251Z,942.50
2018-03-07T03:17:26.263Z,942.47
2018-03-07T03:18:26.277Z,942.50
2018-03-07T03:19:26.327Z,942.52
2018-03-07T03:20:26.300Z,942.52
2018-03-07T03:21:26.311Z,942.53
2018-03-07T03:22:26.333Z,942.53
2018-03-07T03:23:26.337Z,942.54
2018-03-07T03:24:26.371Z,942.56
2018-03-07T03:25:26.362Z,942.58
2018-03-07T03:26:26.398Z,942.59
2018-03-07T03:27:26.389Z,942.61
2018-03-07T03:28:26.403Z,942.63
2018-03-07T03:29:26.416Z,942.61
2018-03-07T03:30:26.425Z,942.62
2018-03-07T03:31:26.478Z,942.66
2018-03-07T03:32:26.447Z,942.64
2018-03-07T03:33:26.482Z,942.70
2018-03-07T03:34:26.477Z,942.69
2018-03-07T03:35:26.489Z,942.70
2018-03-07T03:36:26.542Z,942.69
2018-03-07T03:37:26.512Z,942.69
2018-03-07T03:38:26.542Z,942.67
2018-03-07T03:39:26.534Z,942.70
2018-03-07T03:40:26.551Z,942.70
2018-03-07T03:41:26.599Z,942.67
2018-03-07T03:42:26.578Z,942.69
2018-03-07T03:43:26.588Z,942.69
2018-03-07T03:44:26.598Z,942.74
2018-03-07T03:45:26.609Z,942.80
2018-03-07T03:46:26.675Z,942.82
2018-03-07T03:47:26.633Z,942.77
2018-03-07T03:48:26.648Z,942.78
2018-03-07T03:49:26.663Z,942.82
2018-03-07T03:50:26.672Z,942.83
2018-03-07T03:51:26.706Z,942.82
2018-03-07T03:52:26.694Z,942.85
2018-03-07T03:53:26.730Z,942.83
2018-03-07T03:54:26.725Z,942.85
2018-03-07T03:55:26.755Z,942.90
2018-03-07T03:56:26.744Z,942.90
2018-03-07T03:57:26.756Z,942.94
2018-03-07T03:58:26.772Z,942.94
2018-03-07T03:59:26.829Z,942.91
2018-03-07T04:00:26.798Z,942.93
2018-03-07T04:01:26.810Z,942.92
2018-03-07T04:02:26.822Z,942.87
2018-03-07T04:03:26.833Z,942.94
2018-03-07T04:04:26.890Z,942.97
2018-03-07T04:05:26.852Z,942.93
2018-03-07T04:06:26.872Z,942.90
2018-03-07T04:07:26.887Z,942.90
2018-03-07T04:08:26.893Z,942.93
2018-03-07T04:09:26.958Z,942.94
2018-03-07T04:10:26.922Z,942.93
2018-03-07T04:11:26.930Z,942.96
2018-03-07T04:12:26.940Z,942.95
2018-03-07T04:13:26.957Z,942.93
2018-03-07T04:14:27.010Z,942.97
2018-03-07T04:15:26.976Z,942.97
2018-03-07T04:16:26.994Z,943.00
2018-03-07T04:17:27.012Z,942.98
2018-03-07T04:18:27.021Z,943.02
2018-03-07T04:19:27.084Z,943.02
2018-03-07T04:20:27.048Z,943.00
2018-03-07T04:21:27.055Z,942.99
2018-03-07T04:22:27.069Z,943.03
2018-03-07T04:23:27.078Z,943.00
2018-03-07T04:24:27.130Z,942.96
2018-03-07T04:25:27.134Z,943.00
2018-03-07T04:26:27.124Z,943.02
2018-03-07T04:27:27.131Z,942.99
2018-03-07T04:28:27.739Z,943.04
2018-03-07T04:29:27.159Z,943.06
2018-03-07T04:30:27.183Z,943.07
2018-03-07T04:31:27.172Z,943.06
2018-03-07T04:32:27.233Z,943.07
2018-03-07T04:33:27.200Z,943.08
2018-03-07T04:34:27.211Z,943.06
2018-03-07T04:35:27.229Z,943.02
2018-03-07T04:36:27.234Z,943.04
2018-03-07T04:37:27.268Z,943.01
2018-03-07T04:38:27.257Z,943.00
2018-03-07T04:39:27.271Z,942.92
2018-03-07T04:40:27.280Z,942.94
2018-03-07T04:41:27.297Z,942.91
2018-03-07T04:42:27.345Z,942.92
2018-03-07T04:43:27.323Z,942.93
2018-03-07T04:44:27.332Z,942.91
2018-03-07T04:45:27.346Z,942.95
2018-03-07T04:46:27.353Z,942.98
2018-03-07T04:47:27.403Z,943.00
2018-03-07T04:48:27.416Z,943.02
2018-03-07T04:49:27.396Z,943.00
2018-03-07T04:50:27.407Z,943.01
2018-03-07T04:51:27.416Z,943.02
2018-03-07T04:52:27.449Z,943.07
2018-03-07T04:53:27.442Z,943.02
2018-03-07T04:54:27.468Z,943.06
2018-03-07T04:55:27.465Z,943.07
2018-03-07T04:56:27.503Z,943.03
2018-03-07T04:57:27.485Z,943.05
2018-03-07T04:58:27.498Z,943.04
2018-03-07T04:59:27.533Z,943.05
2018-03-07T05:00:27.523Z,943.08
2018-03-07T05:01:27.546Z,943.04
2018-03-07T05:02:27.546Z,943.07
2018-03-07T05:03:27.566Z,943.09
2018-03-07T05:04:27.595Z,943.11
2018-03-07T05:05:27.582Z,943.04
2018-03-07T05:06:27.597Z,943.05
2018-03-07T05:07:27.604Z,943.09
2018-03-07T05:08:27.619Z,943.07
2018-03-07T05:09:27.679Z,943.07
2018-03-07T05:10:27.646Z,943.04
2018-03-07T05:11:27.655Z,943.09
2018-03-07T05:12:27.674Z,943.13
2018-03-07T05:13:27.680Z,943.11
2018-03-07T05:14:27.713Z,943.17
2018-03-07T05:15:27.719Z,943.17
2018-03-07T05:16:27.723Z,943.15
2018-03-07T05:17:27.744Z,943.14
2018-03-07T05:18:27.741Z,943.13
2018-03-07T05:19:27.773Z,943.16
2018-03-07T05:20:27.815Z,943.13
2018-03-07T05:21:27.779Z,943.15
2018-03-07T05:22:27.790Z,943.16
2018-03-07T05:23:27.804Z,943.23
2018-03-07T05:24:27.873Z,943.21
2018-03-07T05:25:27.884Z,943.19
2018-03-07T05:26:27.838Z,943.20
2018-03-07T05:27:27.854Z,943.21
2018-03-07T05:28:27.867Z,943.21
2018-03-07T05:29:27.875Z,943.23
2018-03-07T05:30:27.938Z,943.24
2018-03-07T05:31:27.904Z,943.23
2018-03-07T05:32:27.913Z,943.25
2018-03-07T05:33:27.924Z,943.28
2018-03-07T05:34:27.942Z,943.29
2018-03-07T05:35:27.985Z,943.27
2018-03-07T05:36:27.969Z,943.34
2018-03-07T05:37:27.979Z,943.32
2018-03-07T05:38:27.986Z,943.35
2018-03-07T05:39:28.010Z,943.32
2018-03-07T05:40:28.034Z,943.33
2018-03-07T05:41:28.041Z,943.31
2018-03-07T05:42:28.033Z,943.32
2018-03-07T05:43:28.053Z,943.36
2018-03-07T05:44:28.097Z,943.32
2018-03-07T05:45:28.083Z,943.32
2018-03-07T05:46:28.087Z,943.34
2018-03-07T05:47:28.100Z,943.39
2018-03-07T05:48:28.117Z,943.40
2018-03-07T05:49:28.140Z,943.40
2018-03-07T05:50:28.141Z,943.36
2018-03-07T05:51:28.164Z,943.43
2018-03-07T05:52:28.160Z,943.39
2018-03-07T05:53:28.193Z,943.50
2018-03-07T05:54:28.186Z,943.46
2018-03-07T05:55:28.196Z,943.49
2018-03-07T05:56:28.233Z,943.48
2018-03-07T05:57:28.228Z,943.47
2018-03-07T05:58:28.284Z,943.48
2018-03-07T05:59:28.267Z,943.46
2018-03-07T06:00:28.256Z,943.47
2018-03-07T06:01:28.280Z,943.47
2018-03-07T06:02:28.284Z,943.55
2018-03-07T06:03:28.317Z,943.52
2018-03-07T06:04:28.302Z,943.53
2018-03-07T06:05:28.319Z,943.52
2018-03-07T06:06:28.339Z,943.56
2018-03-07T06:07:28.341Z,943.53
2018-03-07T06:08:28.388Z,943.52
2018-03-07T06:09:28.369Z,943.57
2018-03-07T06:10:28.386Z,943.58
2018-03-07T06:11:28.389Z,943.60
2018-03-07T06:12:28.399Z,943.61
2018-03-07T06:13:28.444Z,943.63
2018-03-07T06:14:28.432Z,943.67
2018-03-07T06:15:28.442Z,943.65
2018-03-07T06:16:28.453Z,943.67
2018-03-07T06:17:28.464Z,943.65
2018-03-07T06:18:28.499Z,943.69
2018-03-07T06:19:28.504Z,943.76
2018-03-07T06:20:28.547Z,943.71
2018-03-07T06:21:28.512Z,943.73
2018-03-07T06:22:28.527Z,943.72
2018-03-07T06:23:28.534Z,943.76
2018-03-07T06:24:28.584Z,943.76
2018-03-07T06:25:28.562Z,943.82
2018-03-07T06:26:28.573Z,943.80
2018-03-07T06:27:28.586Z,943.81
2018-03-07T06:28:28.601Z,943.87
2018-03-07T06:29:28.635Z,943.86
2018-03-07T06:30:28.623Z,943.88
2018-03-07T06:31:28.686Z,943.90
2018-03-07T06:32:28.666Z,943.88
2018-03-07T06:33:28.666Z,943.85
2018-03-07T06:34:28.695Z,943.91
2018-03-07T06:35:28.688Z,943.92
2018-03-07T06:36:28.757Z,943.96
2018-03-07T06:37:28.729Z,943.96
2018-03-07T06:38:28.724Z,944.00
2018-03-07T06:39:28.728Z,943.96
2018-03-07T06:40:28.753Z,943.96
2018-03-07T06:41:28.793Z,944.00
2018-03-07T06:42:28.773Z,944.00
2018-03-07T06:43:28.788Z,944.03
2018-03-07T06:44:28.796Z,944.05
2018-03-07T06:45:28.823Z,944.07
2018-03-07T06:46:28.883Z,944.13
2018-03-07T06:47:28.836Z,944.13
2018-03-07T06:48:28.845Z,944.14
2018-03-07T06:49:28.860Z,944.15
2018-03-07T06:50:28.873Z,944.14
2018-03-07T06:51:28.901Z,944.14
2018-03-07T06:52:28.896Z,944.17
2018-03-07T06:53:28.908Z,944.19
2018-03-07T06:54:28.924Z,944.20
2018-03-07T06:55:28.974Z,944.22
2018-03-07T06:56:28.944Z,944.26
2018-03-07T06:57:28.958Z,944.25
2018-03-07T06:58:28.974Z,944.26
2018-03-07T06:59:28.996Z,944.26
2018-03-07T07:00:29.028Z,944.28
2018-03-07T07:01:29.013Z,944.29
2018-03-07T07:02:29.021Z,944.35
2018-03-07T07:03:29.041Z,944.33
2018-03-07T07:04:29.047Z,944.36
2018-03-07T07:05:29.099Z,944.36
2018-03-07T07:06:29.074Z,944.39
2018-03-07T07:07:29.116Z,944.46
2018-03-07T07:08:29.100Z,944.44
2018-03-07T07:09:29.123Z,944.46
2018-03-07T07:10:29.124Z,944.50
2018-03-07T07:11:29.133Z,944.55
2018-03-07T07:12:29.187Z,944.57
2018-03-07T07:13:29.217Z,944.52
2018-03-07T07:14:29.173Z,944.55
2018-03-07T07:15:29.186Z,944.53
2018-03-07T07:16:29.209Z,944.57
2018-03-07T07:17:29.214Z,944.61
2018-03-07T07:18:29.267Z,944.60
2018-03-07T07:19:29.232Z,944.61
2018-03-07T07:20:29.252Z,944.63
2018-03-07T07:21:29.266Z,944.69
2018-03-07T07:22:29.339Z,944.70
2018-03-07T07:23:29.349Z,944.71
2018-03-07T07:24:29.309Z,944.69
2018-03-07T07:25:29.318Z,944.70
2018-03-07T07:26:29.328Z,944.70
2018-03-07T07:27:29.337Z,944.76
2018-03-07T07:28:29.366Z,944.79
2018-03-07T07:29:29.397Z,944.78
2018-03-07T07:30:29.376Z,944.82
2018-03-07T07:31:29.428Z,944.83
2018-03-07T07:32:29.438Z,944.87
2018-03-07T07:33:29.416Z,944.87
2018-03-07T07:34:29.432Z,944.85
2018-03-07T07:35:29.487Z,944.87
2018-03-07T07:36:29.455Z,944.88
2018-03-07T07:37:29.506Z,944.87
2018-03-07T07:38:29.479Z,944.88
2018-03-07T07:39:29.489Z,944.85
2018-03-07T07:40:29.554Z,944.87
2018-03-07T07:41:29.510Z,944.93
2018-03-07T07:42:29.528Z,944.91
2018-03-07T07:43:29.541Z,944.92
2018-03-07T07:44:29.553Z,944.97
2018-03-07T07:45:29.599Z,944.96
2018-03-07T07:46:29.584Z,944.99
2018-03-07T07:47:29.585Z,945.03
2018-03-07T07:48:29.603Z,945.05
2018-03-07T07:49:29.617Z,945.00
2018-03-07T07:50:29.669Z,945.01
2018-03-07T07:51:29.637Z,945.03
2018-03-07T07:52:29.651Z,945.01
2018-03-07T07:53:29.669Z,945.04
2018-03-07T07:54:29.724Z,945.02
2018-03-07T07:55:29.729Z,945.05
2018-03-07T07:56:29.705Z,944.99
2018-03-07T07:57:29.717Z,945.07
2018-03-07T07:58:29.723Z,945.10
2018-03-07T07:59:29.742Z,945.09
2018-03-07T08:00:29.780Z,945.06
2018-03-07T08:01:29.770Z,945.10
2018-03-07T08:02:29.786Z,945.14
2018-03-07T08:03:29.795Z,945.19
2018-03-07T08:04:29.807Z,945.22
2018-03-07T08:05:29.871Z,945.25
2018-03-07T08:06:29.832Z,945.27
2018-03-07T08:07:29.845Z,945.28
2018-03-07T08:08:29.859Z,945.30
2018-03-07T08:09:29.872Z,945.32
2018-03-07T08:10:29.902Z,945.32
2018-03-07T08:11:29.929Z,945.38
2018-03-07T08:12:29.902Z,945.38
2018-03-07T08:13:29.930Z,945.41
2018-03-07T08:14:29.930Z,945.47
2018-03-07T08:15:29.952Z,945.53
2018-03-07T08:16:29.973Z,945.55
2018-03-07T08:17:29.974Z,945.58
2018-03-07T08:18:30.026Z,945.60
2018-03-07T08:19:29.995Z,945.62
2018-03-07T08:20:30.006Z,945.60
2018-03-07T08:21:30.018Z,945.66
2018-03-07T08:22:30.044Z,945.66
2018-03-07T08:23:30.094Z,945.65
2018-03-07T08:24:30.058Z,945.64
2018-03-07T08:25:30.074Z,945.66
2018-03-07T08:26:30.084Z,945.65
2018-03-07T08:27:30.105Z,945.67
2018-03-07T08:28:30.117Z,945.64
2018-03-07T08:29:30.171Z,945.69
2018-03-07T08:30:30.143Z,945.73
2018-03-07T08:31:30.146Z,945.74
2018-03-07T08:32:30.165Z,945.73
2018-03-07T08:33:30.175Z,945.79
2018-03-07T08:34:30.209Z,945.80
2018-03-07T08:35:30.218Z,945.80
2018-03-07T08:36:30.212Z,945.79
2018-03-07T08:37:30.225Z,945.80
2018-03-07T08:38:30.240Z,945.78
2018-03-07T08:39:30.252Z,945.78
2018-03-07T08:40:30.281Z,945.73
2018-03-07T08:41:30.282Z,945.80
2018-03-07T08:42:30.288Z,945.77
2018-03-07T08:43:30.360Z,945.81
2018-03-07T08:44:30.318Z,945.82
2018-03-07T08:45:30.327Z,945.79
2018-03-07T08:46:30.351Z,945.81
2018-03-07T08:47:30.355Z,945.79
2018-03-07T08:48:30.402Z,945.82
2018-03-07T08:49:30.387Z,945.82
2018-03-07T08:50:30.407Z,945.82
2018-03-07T08:51:30.408Z,945.84
2018-03-07T08:52:30.427Z,945.87
2018-03-07T08:53:30.463Z,945.83
2018-03-07T08:54:30.455Z,945.88
2018-03-07T08:55:30.458Z,945.90
2018-03-07T08:56:30.479Z,945.84
2018-03-07T08:57:30.488Z,945.89
2018-03-07T08:58:30.526Z,945.88
2018-03-07T08:59:30.513Z,945.85
2018-03-07T09:00:30.531Z,945.87
2018-03-07T09:01:30.547Z,945.89
2018-03-07T09:02:30.568Z,945.88
2018-03-07T09:03:30.609Z,945.89
2018-03-07T09:04:30.581Z,945.89
2018-03-07T09:05:30.595Z,945.93
2018-03-07T09:06:30.610Z,945.92
2018-03-07T09:07:30.618Z,945.93
2018-03-07T09:08:30.673Z,945.91
2018-03-07T09:09:30.649Z,945.92
2018-03-07T09:10:30.665Z,945.94
2018-03-07T09:11:30.678Z,945.93
2018-03-07T09:12:30.709Z,945.92
2018-03-07T09:13:30.739Z,945.92
2018-03-07T09:14:30.727Z,945.91
2018-03-07T09:15:30.744Z,945.88
2018-03-07T09:16:30.744Z,945.88
2018-03-07T09:17:30.765Z,945.89
2018-03-07T09:18:30.803Z,945.90
2018-03-07T09:19:30.786Z,945.85
2018-03-07T09:20:30.800Z,945.86
2018-03-07T09:21:30.807Z,945.86
2018-03-07T09:22:30.824Z,945.86
2018-03-07T09:23:30.875Z,945.86
2018-03-07T09:24:30.862Z,945.88
2018-03-07T09:25:30.866Z,945.93
2018-03-07T09:26:30.879Z,945.92
2018-03-07T09:27:30.895Z,945.89
2018-03-07T09:28:30.926Z,945.91
2018-03-07T09:29:30.926Z,945.90
2018-03-07T09:30:30.937Z,945.94
2018-03-07T09:31:30.943Z,945.97
2018-03-07T09:32:31.001Z,945.95
2018-03-07T09:33:30.977Z,945.98
2018-03-07T09:34:30.994Z,945.95
2018-03-07T09:35:31.005Z,945.97
2018-03-07T09:36:31.016Z,945.99
2018-03-07T09:37:31.056Z,945.96
2018-03-07T09:38:31.060Z,946.01
2018-03-07T09:39:31.071Z,945.98
2018-03-07T09:40:31.076Z,945.97
2018-03-07T09:41:31.086Z,945.97
2018-03-07T09:42:31.128Z,945.93
2018-03-07T09:43:31.186Z,945.98
2018-03-07T09:44:31.168Z,946.02
2018-03-07T09:45:31.143Z,946.04
2018-03-07T09:46:31.151Z,946.04
2018-03-07T09:47:31.166Z,946.03
2018-03-07T09:48:31.180Z,946.06
2018-03-07T09:49:31.233Z,946.02
2018-03-07T09:50:31.268Z,946.00
2018-03-07T09:51:31.233Z,946.05
2018-03-07T09:52:31.239Z,946.03
2018-03-07T09:53:31.256Z,946.04
2018-03-07T09:54:31.299Z,946.05
2018-03-07T09:55:31.280Z,946.03
2018-03-07T09:56:31.392Z,946.04
2018-03-07T09:57:31.311Z,946.02
2018-03-07T09:58:31.332Z,946.01
2018-03-07T09:59:31.395Z,946.02
2018-03-07T10:00:31.348Z,946.11
2018-03-07T10:01:31.394Z,946.07
2018-03-07T10:02:31.375Z,946.04
2018-03-07T10:03:31.395Z,946.05
2018-03-07T10:04:31.425Z,946.03
2018-03-07T10:05:31.443Z,945.99
2018-03-07T10:06:31.471Z,945.98
2018-03-07T10:07:31.455Z,945.98
2018-03-07T10:08:31.459Z,945.96
2018-03-07T10:09:31.478Z,945.96
2018-03-07T10:10:31.495Z,945.96
2018-03-07T10:11:31.512Z,945.95
2018-03-07T10:12:31.541Z,945.91
2018-03-07T10:13:31.533Z,945.96
2018-03-07T10:14:31.597Z,945.99
2018-03-07T10:15:31.560Z,945.94
2018-03-07T10:16:31.637Z,945.95
2018-03-07T10:17:31.584Z,945.92
2018-03-07T10:18:31.599Z,945.95
2018-03-07T10:19:31.616Z,945.97
2018-03-07T10:20:31.624Z,945.98
2018-03-07T10:21:31.673Z,946.01
2018-03-07T10:22:31.689Z,945.96
2018-03-07T10:23:31.673Z,945.98
2018-03-07T10:24:31.686Z,945.98
2018-03-07T10:25:31.702Z,945.94
2018-03-07T10:26:31.739Z,945.99
2018-03-07T10:27:31.767Z,945.97
2018-03-07T10:28:31.746Z,946.01
2018-03-07T10:29:31.758Z,946.02
2018-03-07T10:30:31.768Z,945.99
2018-03-07T10:31:31.777Z,946.01
2018-03-07T10:32:31.796Z,946.00
2018-03-07T10:33:31.867Z,946.01
2018-03-07T10:34:31.826Z,946.00
2018-03-07T10:35:31.839Z,946.02
2018-03-07T10:36:31.857Z,946.04
2018-03-07T10:37:31.869Z,946.04
2018-03-07T10:38:31.931Z,946.05
2018-03-07T10:39:31.908Z,946.07
2018-03-07T10:40:31.910Z,946.10
2018-03-07T10:41:31.954Z,946.11
2018-03-07T10:42:31.944Z,946.10
2018-03-07T10:43:31.975Z,946.14
2018-03-07T10:44:31.963Z,946.13
2018-03-07T10:45:31.979Z,946.06
2018-03-07T10:46:32.012Z,946.10
2018-03-07T10:47:32.008Z,946.06
2018-03-07T10:48:32.061Z,946.10
2018-03-07T10:49:32.046Z,946.06
2018-03-07T10:50:32.058Z,946.09
2018-03-07T10:51:32.071Z,946.09
2018-03-07T10:52:32.076Z,946.08
2018-03-07T10:53:32.128Z,946.09
2018-03-07T10:54:32.110Z,946.09
2018-03-07T10:55:32.124Z,946.11
2018-03-07T10:56:32.136Z,946.08
2018-03-07T10:57:32.152Z,946.14
2018-03-07T10:58:32.171Z,946.14
2018-03-07T10:59:32.218Z,946.13
2018-03-07T11:00:32.191Z,946.17
2018-03-07T11:01:32.207Z,946.13
2018-03-07T11:02:32.272Z,946.18
2018-03-07T11:03:32.239Z,946.18
2018-03-07T11:04:32.254Z,946.15
2018-03-07T11:05:32.285Z,946.12
2018-03-07T11:06:32.278Z,946.10
2018-03-07T11:07:32.289Z,946.09
2018-03-07T11:08:32.304Z,946.06
2018-03-07T11:09:32.322Z,946.07
2018-03-07T11:10:32.377Z,946.06
2018-03-07T11:11:32.357Z,946.05
2018-03-07T11:12:32.371Z,946.10
2018-03-07T11:13:32.380Z,946.10
2018-03-07T11:14:32.410Z,946.13
2018-03-07T11:15:32.455Z,946.11
2018-03-07T11:16:32.422Z,946.18
2018-03-07T11:17:32.438Z,946.15
2018-03-07T11:18:32.449Z,946.16
2018-03-07T11:19:32.463Z,946.17
2018-03-07T11:20:32.531Z,946.17
2018-03-07T11:21:32.494Z,946.18
2018-03-07T11:22:32.511Z,946.19
2018-03-07T11:23:32.526Z,946.24
2018-03-07T11:24:32.534Z,946.21
2018-03-07T11:25:32.582Z,946.20
2018-03-07T11:26:32.565Z,946.22
2018-03-07T11:27:32.575Z,946.20
2018-03-07T11:28:32.609Z,946.22
2018-03-07T11:29:32.602Z,946.18
2018-03-07T11:30:32.658Z,946.19
2018-03-07T11:31:32.659Z,946.21
2018-03-07T11:32:32.651Z,946.20
2018-03-07T11:33:32.692Z,946.17
2018-03-07T11:34:32.682Z,946.19
2018-03-07T11:35:32.704Z,946.23
2018-03-07T11:36:32.708Z,946.26
2018-03-07T11:37:32.724Z,946.25
2018-03-07T11:38:32.760Z,946.22
2018-03-07T11:39:32.753Z,946.28
2018-03-07T11:40:32.805Z,946.21
2018-03-07T11:41:32.783Z,946.28
2018-03-07T11:42:32.794Z,946.26
2018-03-07T11:43:32.812Z,946.29
2018-03-07T11:44:32.832Z,946.30
2018-03-07T11:45:32.859Z,946.27
2018-03-07T11:46:32.864Z,946.29
2018-03-07T11:47:32.888Z,946.28
2018-03-07T11:48:32.902Z,946.30
2018-03-07T11:49:32.903Z,946.33
2018-03-07T11:50:32.916Z,946.31
2018-03-07T11:51:32.928Z,946.31
2018-03-07T11:52:32.987Z,946.25
2018-03-07T11:53:32.962Z,946.28
2018-03-07T11:54:32.980Z,946.30
2018-03-07T11:55:32.992Z,946.31
2018-03-07T11:56:33.001Z,946.33
2018-03-07T11:57:33.062Z,946.32
2018-03-07T11:58:33.053Z,946.33
2018-03-07T11:59:33.047Z,946.34
2018-03-07T12:00:33.061Z,946.33
2018-03-07T12:01:33.083Z,946.34
2018-03-07T12:02:33.125Z,946.37
2018-03-07T12:03:33.118Z,946.36
2018-03-07T12:04:33.134Z,946.37
2018-03-07T12:05:33.135Z,946.37
2018-03-07T12:06:33.157Z,946.37
2018-03-07T12:07:33.169Z,946.36
2018-03-07T12:08:33.238Z,946.39
2018-03-07T12:09:33.205Z,946.36
2018-03-07T12:10:33.227Z,946.41
2018-03-07T12:11:33.227Z,946.45
2018-03-07T12:12:33.239Z,946.38
2018-03-07T12:13:33.281Z,946.33
2018-03-07T12:14:33.272Z,946.35
2018-03-07T12:15:33.287Z,946.33
2018-03-07T12:16:33.303Z,946.32
2018-03-07T12:17:33.368Z,946.30
2018-03-07T12:18:33.351Z,946.32
2018-03-07T12:19:33.374Z,946.32
2018-03-07T12:20:33.377Z,946.28
2018-03-07T12:21:33.373Z,946.29
2018-03-07T12:22:33.433Z,946.27
2018-03-07T12:23:33.408Z,946.23
2018-03-07T12:24:33.428Z,946.24
2018-03-07T12:25:33.452Z,946.25
2018-03-07T12:26:33.458Z,946.22
2018-03-07T12:27:33.530Z,946.25
2018-03-07T12:28:33.526Z,946.21